Time;durP1;ratioP1;P1;durP2;ratioP2;P2;SDS_P1;SDS_P2;PMS_P1;PMS_P2;Temp;Humidity;BMP_temperature;BMP_pressure;BME280_temperature;BME280_humidity;BME280_pressure;Samples;Min_cycle;Max_cycle;Signal;HPM_P1;HPM_P2
2024/01/02 14:54:02;;;;;;;1.40;0.17;;;11.10;99.90;;;;;;5122650;27;20540;-85
2024/01/02 14:57:00;;;;;;;1.47;0.20;;;10.70;99.90;;;;;;5109672;28;20197;-86
2024/01/02 14:59:52;;;;;;;3.73;0.50;;;10.60;99.90;;;;;;5109651;28;20646;-82
2024/01/02 15:02:57;;;;;;;1.77;0.50;;;10.60;99.90;;;;;;5109507;28;20168;-83
2024/01/02 15:05:34;;;;;;;1.03;0.40;;;10.60;99.90;;;;;;5109375;28;20657;-83
2024/01/02 15:08:04;;;;;;;2.17;0.70;;;10.60;99.90;;;;;;5109271;28;20257;-83
2024/01/02 15:10:31;;;;;;;1.20;0.40;;;10.60;99.90;;;;;;5112452;28;20254;-78
2024/01/02 15:13:20;;;;;;;1.93;0.57;;;10.60;99.90;;;;;;5108761;28;20619;-80
2024/01/02 15:16:01;;;;;;;0.83;0.70;;;10.60;99.90;;;;;;5108930;28;20179;-81
2024/01/02 15:18:44;;;;;;;1.27;0.60;;;10.40;99.90;;;;;;5109059;28;20168;-88
2024/01/02 15:21:28;;;;;;;1.53;0.60;;;10.40;99.90;;;;;;5109103;28;20179;-82
2024/01/02 15:24:16;;;;;;;1.27;0.40;;;10.20;99.90;;;;;;5096306;28;20199;-87
2024/01/02 15:26:54;;;;;;;0.93;0.40;;;10.10;99.90;;;;;;5087335;28;20160;-83
2024/01/02 15:29:25;;;;;;;0.67;0.30;;;10.00;99.90;;;;;;5088855;28;20180;-84
2024/01/02 15:32:06;;;;;;;0.83;0.40;;;9.90;99.90;;;;;;5087236;28;20204;-84
2024/01/02 15:34:48;;;;;;;1.20;0.30;;;9.90;99.90;;;;;;5088502;28;20634;-86
2024/01/02 15:37:25;;;;;;;3.53;0.70;;;10.00;99.90;;;;;;5101661;27;20167;-80
2024/01/02 15:40:06;;;;;;;1.63;0.50;;;10.00;99.90;;;;;;5109347;28;20178;-82
2024/01/02 15:42:37;;;;;;;2.80;0.70;;;10.00;99.90;;;;;;5110861;28;20167;-80
2024/01/02 15:45:07;;;;;;;1.20;0.47;;;10.00;99.90;;;;;;5124795;27;20175;-86
2024/01/02 15:47:51;;;;;;;1.60;0.60;;;10.00;99.90;;;;;;5124314;27;20211;-86
2024/01/02 15:50:25;;;;;;;2.93;0.93;;;10.00;99.90;;;;;;5108592;28;20706;-84
2024/01/02 15:52:54;;;;;;;4.83;1.27;;;10.00;99.90;;;;;;5108318;28;20318;-93
2024/01/02 15:55:24;;;;;;;2.50;0.90;;;10.00;99.90;;;;;;5108220;28;20634;-75
2024/01/02 15:57:57;;;;;;;3.30;0.93;;;10.00;99.90;;;;;;5108925;28;20183;-80
2024/01/02 16:00:24;;;;;;;7.17;1.40;;;10.00;99.90;;;;;;5120622;28;20177;-85
2024/01/02 16:03:09;;;;;;;3.00;1.03;;;10.10;99.90;;;;;;5104904;28;20172;-83
2024/01/02 16:05:53;;;;;;;3.60;1.20;;;10.20;99.90;;;;;;5094881;28;20172;-79
2024/01/02 16:08:40;;;;;;;3.80;1.10;;;10.20;99.90;;;;;;5094476;28;20630;-82
2024/01/02 16:11:15;;;;;;;4.67;1.30;;;10.20;99.90;;;;;;5093807;28;20187;-87
2024/01/02 16:13:48;;;;;;;5.90;1.80;;;10.40;99.90;;;;;;5094418;28;20171;-80
2024/01/02 16:16:37;;;;;;;4.13;1.60;;;10.30;99.90;;;;;;5094136;28;20160;-77
2024/01/02 16:19:15;;;;;;;5.47;1.70;;;10.40;99.90;;;;;;5084013;28;20188;-83
2024/01/02 16:22:09;;;;;;;3.57;1.50;;;10.40;99.90;;;;;;5083785;28;20168;-87
2024/01/02 16:24:40;;;;;;;5.20;1.80;;;10.40;99.90;;;;;;5097652;28;20645;-88
2024/01/02 16:27:18;;;;;;;5.03;2.10;;;10.40;99.90;;;;;;5076667;28;20172;-84
2024/01/02 16:29:49;;;;;;;5.60;1.93;;;10.50;99.90;;;;;;5092421;28;20172;-80
2024/01/02 16:32:24;;;;;;;4.57;1.87;;;10.40;99.90;;;;;;5093586;28;20214;-82
2024/01/02 16:35:19;;;;;;;4.63;1.60;;;10.40;99.90;;;;;;5094066;28;20633;-82
2024/01/02 16:38:04;;;;;;;3.23;1.37;;;10.40;99.90;;;;;;5093683;28;20180;-89
2024/01/02 16:40:55;;;;;;;5.20;1.80;;;10.20;99.90;;;;;;5101354;28;20314;-89
2024/01/02 16:43:21;;;;;;;3.00;1.13;;;10.10;99.90;;;;;;5104245;28;20168;-90
2024/01/02 16:45:47;;;;;;;4.10;1.43;;;10.00;99.90;;;;;;5095365;28;20186;-87
2024/01/02 16:48:17;;;;;;;2.97;1.00;;;10.00;99.90;;;;;;5097202;28;20172;-85
2024/01/02 16:50:45;;;;;;;4.30;1.17;;;10.00;99.90;;;;;;5095278;28;20168;-85
2024/01/02 16:53:15;;;;;;;3.50;1.20;;;9.90;99.90;;;;;;5094279;28;20802;-83
2024/01/02 16:55:42;;;;;;;5.27;1.47;;;9.90;99.90;;;;;;5094694;28;20171;-84
2024/01/02 16:58:18;;;;;;;3.77;1.20;;;9.90;99.90;;;;;;5095258;28;20210;-86
2024/01/02 17:00:44;;;;;;;4.03;1.17;;;10.00;99.90;;;;;;5094716;28;20168;-82
2024/01/02 17:03:11;;;;;;;3.10;1.13;;;10.10;99.90;;;;;;5087335;28;20536;-82
2024/01/02 17:05:37;;;;;;;4.30;1.23;;;10.10;99.90;;;;;;5074954;28;20169;-82
2024/01/02 17:08:04;;;;;;;7.10;1.97;;;10.10;99.90;;;;;;5087769;28;20236;-85
2024/01/02 17:10:32;;;;;;;4.17;1.47;;;10.10;99.90;;;;;;5080153;28;20198;-85
2024/01/02 17:12:59;;;;;;;4.50;1.77;;;10.10;99.90;;;;;;5093388;28;20215;-85
2024/01/02 17:15:27;;;;;;;6.17;2.10;;;10.20;99.90;;;;;;5104171;28;20183;-86
2024/01/02 17:17:56;;;;;;;5.20;2.10;;;10.10;99.90;;;;;;5095055;28;20200;-87
2024/01/02 17:20:27;;;;;;;5.10;2.27;;;10.20;99.90;;;;;;5089260;28;20164;-86
2024/01/02 17:22:54;;;;;;;6.07;2.50;;;10.10;99.90;;;;;;5107578;28;20175;-87
2024/01/02 17:25:25;;;;;;;7.27;2.97;;;10.40;99.90;;;;;;5111878;28;20247;-87
2024/01/02 17:27:52;;;;;;;8.57;2.90;;;10.20;99.90;;;;;;5113005;28;20170;-83
2024/01/02 17:30:23;;;;;;;9.70;2.97;;;10.20;99.90;;;;;;5108372;28;20171;-80
2024/01/02 17:32:52;;;;;;;9.53;2.80;;;10.30;99.90;;;;;;5094070;28;20211;-85
2024/01/02 17:35:18;;;;;;;10.53;3.20;;;10.30;99.90;;;;;;5092083;28;20241;-83
2024/01/02 17:37:45;;;;;;;8.90;2.73;;;10.30;99.90;;;;;;5091364;28;20172;-85
2024/01/02 17:40:12;;;;;;;6.97;2.73;;;10.40;99.90;;;;;;5092541;28;20251;-81
2024/01/02 17:42:38;;;;;;;10.97;3.23;;;10.40;99.90;;;;;;5092806;28;20175;-82
2024/01/02 17:45:20;;;;;;;12.50;3.50;;;10.40;99.90;;;;;;5074553;28;20180;-82
2024/01/02 17:47:46;;;;;;;10.37;3.13;;;10.40;99.90;;;;;;5092259;28;20634;-78
2024/01/02 17:50:12;;;;;;;13.17;3.63;;;10.40;99.90;;;;;;5092570;28;20658;-85
2024/01/02 17:52:39;;;;;;;8.27;3.17;;;10.40;99.90;;;;;;5092340;28;20232;-90
2024/01/02 17:55:05;;;;;;;14.50;4.73;;;10.50;99.90;;;;;;5092676;28;20164;-84
2024/01/02 17:57:36;;;;;;;12.17;4.60;;;10.50;99.90;;;;;;5092444;28;20254;-82
2024/01/02 18:00:10;;;;;;;10.37;4.40;;;10.50;99.90;;;;;;5093012;28;20626;-85
2024/01/02 18:02:42;;;;;;;14.57;4.53;;;12.10;99.90;;;;;;5092557;28;20175;-85
2024/01/02 18:05:09;;;;;;;14.63;4.73;;;10.50;99.90;;;;;;5092227;28;20160;-85
2024/01/02 18:07:47;;;;;;;13.83;5.07;;;10.50;99.90;;;;;;5092548;28;20258;-88
2024/01/02 18:10:28;;;;;;;13.97;4.80;;;10.50;99.90;;;;;;5086936;28;20703;-85
2024/01/02 18:13:02;;;;;;;10.73;3.57;;;10.40;99.90;;;;;;5073687;28;20219;-84
2024/01/02 18:15:46;;;;;;;13.10;4.07;;;10.40;99.90;;;;;;5070519;28;20184;-79
2024/01/02 18:18:29;;;;;;;14.17;4.27;;;10.50;99.90;;;;;;5076967;28;20175;-86
2024/01/02 18:21:27;;;;;;;10.53;4.13;;;10.40;99.90;;;;;;5091847;28;20255;-86
2024/01/02 18:24:15;;;;;;;13.10;4.30;;;10.40;99.90;;;;;;5082686;27;20183;-85
2024/01/02 18:26:49;;;;;;;11.67;4.20;;;10.50;99.90;;;;;;5093207;28;20692;-91
2024/01/02 18:29:33;;;;;;;12.03;4.40;;;10.50;99.90;;;;;;5110808;28;20182;-91
2024/01/02 18:32:14;;;;;;;12.37;4.17;;;10.40;99.90;;;;;;5108083;28;20218;-89
2024/01/02 18:34:58;;;;;;;11.50;4.00;;;10.50;99.90;;;;;;5113060;28;20171;-91
2024/01/02 18:37:29;;;;;;;10.97;3.60;;;10.50;99.90;;;;;;5115285;28;20175;-88
2024/01/02 18:40:00;;;;;;;9.63;3.40;;;10.50;99.90;;;;;;5111474;28;20699;-92
2024/01/02 18:42:32;;;;;;;10.77;4.10;;;10.50;99.90;;;;;;5110739;28;20179;-92
2024/01/02 18:45:13;;;;;;;12.67;4.40;;;10.50;99.90;;;;;;5112997;28;20163;-89
2024/01/02 18:47:56;;;;;;;11.13;4.40;;;10.50;99.90;;;;;;5112824;28;20159;-85
2024/01/02 18:50:24;;;;;;;15.57;4.37;;;10.40;99.90;;;;;;5113086;28;20250;-90
2024/01/02 18:53:25;;;;;;;10.80;3.87;;;10.40;99.90;;;;;;5087155;28;20711;-86
2024/01/02 18:55:51;;;;;;;14.40;4.77;;;10.40;99.90;;;;;;5075871;28;20168;-85
2024/01/02 19:01:16;;;;;;;11.03;4.27;;;10.40;99.90;;;;;;4926793;23;20233;-69
2024/01/02 19:03:42;;;;;;;10.17;4.20;;;10.50;99.90;;;;;;4914219;29;20185;-70
2024/01/02 19:06:28;;;;;;;15.53;4.70;;;10.50;99.90;;;;;;4914475;29;20592;-69
2024/01/02 19:08:55;;;;;;;15.53;5.00;;;10.60;99.90;;;;;;4914297;29;20201;-72
2024/01/02 19:11:24;;;;;;;18.60;5.33;;;10.70;99.90;;;;;;4914471;29;20184;-68
2024/01/02 19:13:52;;;;;;;11.13;4.57;;;10.60;99.90;;;;;;4919652;29;20235;-72
2024/01/02 19:16:18;;;;;;;13.80;4.40;;;10.60;99.90;;;;;;4933173;29;20181;-78
2024/01/02 19:18:47;;;;;;;8.43;3.97;;;10.60;99.90;;;;;;4927172;29;20198;-70
2024/01/02 19:21:22;;;;;;;9.97;4.67;;;10.70;99.90;;;;;;4928648;29;20190;-70
2024/01/02 19:23:53;;;;;;;11.60;4.17;;;10.70;99.90;;;;;;4914424;29;20675;-73
2024/01/02 19:26:23;;;;;;;12.43;4.57;;;10.70;99.90;;;;;;4917605;29;20181;-69
2024/01/02 19:28:54;;;;;;;18.23;4.83;;;10.70;99.90;;;;;;4918441;29;20826;-71
2024/01/02 19:31:20;;;;;;;14.80;4.97;;;10.70;99.90;;;;;;4932968;29;20185;-70
2024/01/02 19:33:47;;;;;;;7.70;3.80;;;10.60;99.90;;;;;;4926331;29;20645;-70
2024/01/02 19:36:13;;;;;;;7.10;3.60;;;10.30;99.90;;;;;;4914681;29;20182;-68
2024/01/02 19:38:39;;;;;;;8.20;3.90;;;10.10;99.90;;;;;;4915551;29;20185;-68
2024/01/02 19:41:07;;;;;;;10.47;4.10;;;9.90;99.90;;;;;;4918949;29;20546;-69
2024/01/02 19:43:37;;;;;;;8.73;3.47;;;9.80;99.90;;;;;;4919542;29;20204;-73
2024/01/02 19:46:04;;;;;;;8.93;4.27;;;9.60;99.90;;;;;;4937103;29;20192;-70
2024/01/02 19:48:32;;;;;;;6.23;4.17;;;9.70;99.90;;;;;;4937005;29;20174;-72
2024/01/02 19:50:59;;;;;;;7.00;4.00;;;9.40;99.90;;;;;;4936947;29;20180;-73
2024/01/02 19:53:26;;;;;;;6.20;3.60;;;9.40;99.90;;;;;;4936974;29;20205;-71
2024/01/02 19:55:52;;;;;;;8.73;4.30;;;;;;;;;;4934869;29;20648;-72
2024/01/02 19:58:18;;;;;;;6.33;4.07;;;9.30;99.90;;;;;;4936846;29;20601;-70
2024/01/02 20:00:44;;;;;;;7.67;3.53;;;9.30;99.90;;;;;;4933105;29;20189;-72
2024/01/02 20:03:35;;;;;;;12.83;4.23;;;9.40;99.90;;;;;;4917374;29;20193;-71
2024/01/02 20:06:01;;;;;;;8.20;3.63;;;9.60;99.90;;;;;;4928268;29;20610;-67
2024/01/02 20:08:49;;;;;;;10.03;3.30;;;9.60;99.90;;;;;;4934866;29;20184;-70
2024/01/02 20:11:33;;;;;;;9.90;3.63;;;9.70;99.90;;;;;;4936140;29;20276;-72
2024/01/02 20:13:59;;;;;;;9.23;3.20;;;9.70;99.90;;;;;;4936563;29;20177;-71
2024/01/02 20:16:52;;;;;;;12.13;3.83;;;9.80;99.90;;;;;;4933791;29;20184;-68
2024/01/02 20:19:23;;;;;;;13.20;3.97;;;9.80;99.90;;;;;;4909661;29;20198;-70
2024/01/02 20:21:50;;;;;;;11.30;3.50;;;9.90;99.90;;;;;;4925024;29;20185;-70
2024/01/02 20:24:18;;;;;;;10.47;3.47;;;9.90;99.90;;;;;;4920754;29;20248;-70
2024/01/02 20:26:44;;;;;;;8.60;2.77;;;9.90;99.90;;;;;;4898365;29;20234;-70
2024/01/02 20:29:39;;;;;;;11.60;3.53;;;10.00;99.90;;;;;;4920055;29;20244;-70
2024/01/02 20:32:06;;;;;;;15.10;3.47;;;10.10;99.90;;;;;;4936048;29;20212;-71
2024/01/02 20:34:42;;;;;;;9.83;3.17;;;10.20;99.90;;;;;;4936080;29;20174;-70
2024/01/02 20:37:44;;;;;;;12.53;3.40;;;10.30;99.90;;;;;;4922043;29;20185;-70
2024/01/02 20:40:23;;;;;;;14.17;4.00;;;10.40;99.90;;;;;;4917709;29;20213;-69
2024/01/02 20:42:52;;;;;;;12.67;4.03;;;10.40;99.90;;;;;;4933431;29;20180;-69
2024/01/02 20:45:26;;;;;;;14.00;4.27;;;10.50;99.90;;;;;;4936136;29;20173;-70
2024/01/02 20:47:53;;;;;;;11.27;4.07;;;10.50;99.90;;;;;;4935879;29;20177;-71
2024/01/02 20:50:24;;;;;;;12.87;4.60;;;10.50;99.90;;;;;;4935727;29;20173;-71
2024/01/02 20:52:57;;;;;;;14.10;4.63;;;10.60;99.90;;;;;;4916140;29;20632;-69
2024/01/02 20:55:32;;;;;;;13.00;4.37;;;10.50;99.90;;;;;;4919066;29;20543;-70
2024/01/02 20:57:59;;;;;;;12.40;4.70;;;10.60;99.90;;;;;;4923472;29;20177;-71
2024/01/02 21:00:33;;;;;;;11.33;4.43;;;10.50;99.90;;;;;;4916326;29;20182;-74
2024/01/02 21:03:06;;;;;;;13.13;5.00;;;10.50;99.90;;;;;;4902312;29;20587;-76
2024/01/02 21:05:46;;;;;;;12.67;4.83;;;10.50;99.90;;;;;;4915092;29;20186;-74
2024/01/02 21:08:30;;;;;;;18.40;5.23;;;10.50;99.90;;;;;;4916599;29;20178;-71
2024/01/02 21:11:03;;;;;;;13.17;4.77;;;10.60;99.90;;;;;;4916301;29;20233;-70
2024/01/02 21:13:42;;;;;;;16.63;5.40;;;10.60;99.90;;;;;;4926039;29;20223;-72
2024/01/02 21:16:14;;;;;;;11.13;4.73;;;10.60;99.90;;;;;;4926706;29;20174;-71
2024/01/02 21:18:49;;;;;;;8.97;4.03;;;10.60;99.90;;;;;;4916158;29;20192;-72
2024/01/02 21:21:30;;;;;;;14.80;4.37;;;10.60;99.90;;;;;;4897376;29;20515;-71
2024/01/02 21:23:58;;;;;;;8.13;3.53;;;10.60;99.90;;;;;;4897367;29;20173;-73
2024/01/02 21:26:24;;;;;;;9.80;3.20;;;10.40;99.90;;;;;;4897273;29;20202;-73
2024/01/02 21:28:50;;;;;;;8.80;3.03;;;10.20;99.90;;;;;;4904066;29;20215;-74
2024/01/02 21:31:16;;;;;;;10.63;2.70;;;10.20;99.90;;;;;;4915299;29;20534;-72
2024/01/02 21:33:42;;;;;;;6.70;2.43;;;10.10;99.90;;;;;;4915502;29;20192;-72
2024/01/02 21:36:08;;;;;;;8.17;2.53;;;10.10;99.90;;;;;;4899962;29;20234;-72
2024/01/02 21:38:34;;;;;;;10.60;2.70;;;10.10;99.90;;;;;;4896797;29;20175;-75
2024/01/02 21:41:03;;;;;;;4.63;2.10;;;10.10;99.90;;;;;;4896697;29;20246;-73
2024/01/02 21:43:30;;;;;;;6.30;2.37;;;10.10;99.90;;;;;;4916001;29;20174;-73
2024/01/02 21:45:56;;;;;;;6.13;2.23;;;10.00;99.90;;;;;;4915496;29;20178;-74
2024/01/02 21:48:46;;;;;;;8.47;2.80;;;10.00;99.90;;;;;;4915011;29;20178;-72
2024/01/02 21:51:15;;;;;;;5.43;2.30;;;10.10;99.90;;;;;;4915364;29;20237;-72
2024/01/02 21:53:41;;;;;;;6.90;3.03;;;10.00;99.90;;;;;;4932689;29;20189;-71
2024/01/02 21:56:07;;;;;;;8.00;3.03;;;10.00;99.90;;;;;;4934390;29;20563;-70
2024/01/02 21:58:38;;;;;;;6.70;3.03;;;10.10;99.90;;;;;;4934176;29;20181;-71
2024/01/02 22:01:11;;;;;;;9.53;3.60;;;10.10;99.90;;;;;;4933564;29;20280;-71
2024/01/02 22:03:37;;;;;;;8.07;3.13;;;10.10;99.90;;;;;;4932726;29;20182;-73
2024/01/02 22:06:03;;;;;;;7.43;3.40;;;10.10;99.90;;;;;;4934518;29;20228;-72
2024/01/02 22:08:29;;;;;;;9.80;3.83;;;10.10;99.90;;;;;;4934122;29;20267;-72
2024/01/02 22:10:55;;;;;;;8.93;3.70;;;10.10;99.90;;;;;;4933994;29;20257;-72
2024/01/02 22:13:41;;;;;;;7.17;3.47;;;10.00;99.90;;;;;;4932075;29;20259;-69
2024/01/02 22:16:07;;;;;;;7.27;3.73;;;10.10;99.90;;;;;;4933399;29;20205;-71
2024/01/02 22:18:34;;;;;;;9.20;4.00;;;10.10;99.90;;;;;;4933821;29;20229;-70
2024/01/02 22:21:00;;;;;;;5.00;3.53;;;10.00;99.90;;;;;;4933948;29;20170;-70
2024/01/02 22:23:26;;;;;;;11.07;4.23;;;10.10;99.90;;;;;;4925928;29;20593;-70
2024/01/02 22:25:52;;;;;;;4.53;3.27;;;10.10;99.90;;;;;;4915017;29;20186;-70
2024/01/02 22:28:30;;;;;;;8.00;3.80;;;10.10;99.90;;;;;;4932913;29;20177;-70
2024/01/02 22:30:56;;;;;;;8.07;4.20;;;10.20;99.90;;;;;;4933431;29;20210;-71
2024/01/02 22:33:38;;;;;;;8.60;4.23;;;10.20;99.90;;;;;;4932008;29;20244;-70
2024/01/02 22:36:04;;;;;;;10.13;4.20;;;10.30;99.90;;;;;;4933675;29;20173;-72
2024/01/02 22:38:51;;;;;;;11.90;4.63;;;10.30;99.90;;;;;;4915824;29;20174;-72
2024/01/02 22:41:17;;;;;;;15.70;4.50;;;10.20;99.90;;;;;;4912900;29;20585;-73
2024/01/02 22:43:42;;;;;;;14.97;5.00;;;10.30;99.90;;;;;;4923513;29;20229;-74
2024/01/02 22:46:08;;;;;;;10.30;4.23;;;10.30;99.90;;;;;;4915040;29;20166;-69
